createdAt,value
2018-09-14T00:01:40.461Z,81.74
2018-09-14T00:04:11.149Z,81.85
2018-09-14T00:06:41.384Z,81.81
2018-09-14T00:09:13.371Z,82.50
2018-09-14T00:11:44.407Z,81.94
2018-09-14T00:14:14.874Z,82.38
2018-09-14T00:16:45.367Z,82.32
2018-09-14T00:19:15.932Z,82.00
2018-09-14T00:21:46.254Z,82.23
2018-09-14T00:24:16.675Z,82.21
2018-09-14T00:26:47.104Z,81.83
2018-09-14T00:29:17.537Z,81.89
2018-09-14T00:31:48.142Z,81.92
2018-09-14T00:34:18.597Z,81.80
2018-09-14T00:36:49.001Z,81.70
2018-09-14T00:39:19.327Z,81.29
2018-09-14T00:41:49.708Z,82.08
2018-09-14T00:44:20.144Z,81.34
2018-09-14T00:46:50.586Z,81.14
2018-09-14T00:49:20.908Z,80.85
2018-09-14T00:51:51.283Z,80.35
2018-09-14T00:54:21.865Z,80.50
2018-09-14T00:56:52.164Z,80.15
2018-09-14T00:59:22.549Z,80.96
2018-09-14T01:01:52.919Z,80.68
2018-09-14T01:04:23.659Z,81.00
2018-09-14T01:06:54.376Z,80.44
2018-09-14T01:09:25.643Z,80.55
2018-09-14T01:11:57.512Z,81.13
2018-09-14T01:14:29.012Z,81.14
2018-09-14T01:16:59.605Z,81.56
2018-09-14T01:19:30.002Z,81.89
2018-09-14T01:22:00.412Z,80.83
2018-09-14T01:24:30.903Z,81.71
2018-09-14T01:27:01.335Z,81.32
2018-09-14T01:29:31.764Z,81.83
2018-09-14T01:32:02.324Z,81.52
2018-09-14T01:34:32.816Z,82.11
2018-09-14T01:37:03.195Z,81.70
2018-09-14T01:39:33.546Z,82.00
2018-09-14T01:42:04.093Z,82.14
2018-09-14T01:44:34.430Z,82.12
2018-09-14T01:47:04.798Z,81.93
2018-09-14T01:49:35.059Z,82.37
2018-09-14T01:52:05.568Z,81.96
2018-09-14T01:54:36.028Z,82.36
2018-09-14T01:57:06.649Z,82.81
2018-09-14T01:59:37.124Z,82.50
2018-09-14T02:02:07.630Z,83.10
2018-09-14T02:04:38.087Z,83.25
2018-09-14T02:07:08.539Z,83.25
2018-09-14T02:09:38.960Z,82.44
2018-09-14T02:12:09.624Z,82.45
2018-09-14T02:14:40.012Z,82.62
2018-09-14T02:17:10.421Z,82.98
2018-09-14T02:19:40.761Z,82.87
2018-09-14T02:22:11.222Z,82.64
2018-09-14T02:24:41.620Z,81.92
2018-09-14T02:27:12.210Z,82.33
2018-09-14T02:29:42.711Z,82.45
2018-09-14T02:32:12.955Z,82.32
2018-09-14T02:34:43.343Z,82.49
2018-09-14T02:37:13.932Z,82.54
2018-09-14T02:39:44.531Z,82.26
2018-09-14T02:42:14.813Z,82.68
2018-09-14T02:44:45.060Z,82.03
2018-09-14T02:47:15.679Z,82.66
2018-09-14T02:49:46.043Z,82.41
2018-09-14T02:52:16.756Z,82.60
2018-09-14T02:54:47.296Z,82.93
2018-09-14T02:57:17.787Z,82.68
2018-09-14T02:59:48.392Z,81.97
2018-09-14T03:02:18.525Z,82.82
2018-09-14T03:04:48.924Z,82.48
2018-09-14T03:07:19.404Z,82.89
2018-09-14T03:09:49.696Z,82.68
2018-09-14T03:12:19.903Z,82.92
2018-09-14T03:14:50.274Z,83.20
2018-09-14T03:17:20.557Z,83.31
2018-09-14T03:19:50.963Z,83.03
2018-09-14T03:22:21.444Z,82.96
2018-09-14T03:24:51.772Z,83.27
2018-09-14T03:27:22.022Z,83.08
2018-09-14T03:29:52.321Z,82.83
2018-09-14T03:32:22.882Z,82.78
2018-09-14T03:34:53.424Z,82.89
2018-09-14T03:37:23.622Z,82.47
2018-09-14T03:39:54.423Z,83.03
2018-09-14T03:42:25.008Z,82.24
2018-09-14T03:44:55.351Z,83.02
2018-09-14T03:47:25.807Z,82.90
2018-09-14T03:49:56.408Z,83.27
2018-09-14T03:52:26.734Z,83.51
2018-09-14T03:54:56.941Z,83.61
2018-09-14T03:57:27.314Z,83.33
2018-09-14T03:59:57.825Z,83.75
2018-09-14T04:02:28.228Z,83.27
2018-09-14T04:04:58.565Z,83.65
2018-09-14T04:07:29.065Z,83.94
2018-09-14T04:09:59.449Z,83.37
2018-09-14T04:12:29.954Z,83.08
2018-09-14T04:15:00.419Z,82.81
2018-09-14T04:17:30.704Z,83.32
2018-09-14T04:20:01.521Z,83.49
2018-09-14T04:22:31.956Z,83.59
2018-09-14T04:25:02.341Z,83.31
2018-09-14T04:27:32.748Z,83.42
2018-09-14T04:30:03.088Z,83.91
2018-09-14T04:32:33.364Z,84.28
2018-09-14T04:35:03.843Z,84.31
2018-09-14T04:37:34.216Z,83.93
2018-09-14T04:40:04.900Z,83.55
2018-09-14T04:42:35.379Z,83.52
2018-09-14T04:45:06.452Z,83.53
2018-09-14T04:47:36.842Z,83.25
2018-09-14T04:50:08.076Z,82.78
2018-09-14T04:52:39.378Z,82.98
2018-09-14T04:55:09.708Z,83.51
2018-09-14T04:57:40.196Z,82.85
2018-09-14T05:00:10.685Z,82.87
2018-09-14T05:02:41.166Z,81.98
2018-09-14T05:05:11.659Z,81.71
2018-09-14T05:07:42.144Z,80.90
2018-09-14T05:10:12.704Z,80.79
2018-09-14T05:12:43.196Z,80.92
2018-09-14T05:15:13.812Z,81.31
2018-09-14T05:17:44.008Z,81.18
2018-09-14T05:20:14.462Z,81.40
2018-09-14T05:22:45.021Z,81.04
2018-09-14T05:25:15.513Z,80.96
2018-09-14T05:27:45.820Z,81.56
2018-09-14T05:30:16.335Z,81.02
2018-09-14T05:32:47.932Z,80.90
2018-09-14T05:35:18.303Z,80.78
2018-09-14T05:37:48.655Z,81.55
2018-09-14T05:40:19.145Z,81.29
2018-09-14T05:42:49.535Z,81.33
2018-09-14T05:45:20.018Z,81.51
2018-09-14T05:47:50.428Z,80.99
2018-09-14T05:50:20.935Z,80.53
2018-09-14T05:52:51.524Z,80.92
2018-09-14T05:55:22.117Z,80.26
2018-09-14T05:57:52.585Z,80.20
2018-09-14T06:00:22.972Z,80.28
2018-09-14T06:02:53.472Z,79.97
2018-09-14T06:05:42.817Z,80.53
2018-09-14T06:08:13.257Z,80.90
2018-09-14T06:10:43.817Z,81.56
2018-09-14T06:13:14.316Z,80.76
2018-09-14T06:15:44.893Z,81.55
2018-09-14T06:18:15.456Z,81.73
2018-09-14T06:20:46.001Z,81.12
2018-09-14T06:23:16.685Z,80.65
2018-09-14T06:25:47.072Z,79.85
2018-09-14T06:28:17.544Z,79.90
2018-09-14T06:30:48.153Z,79.84
2018-09-14T06:33:18.555Z,79.91
2018-09-14T06:35:49.563Z,80.09
2018-09-14T06:38:20.177Z,80.06
2018-09-14T06:40:51.213Z,79.70
2018-09-14T06:43:21.716Z,79.83
2018-09-14T06:45:52.129Z,80.30
2018-09-14T06:48:22.455Z,79.46
2018-09-14T06:50:52.913Z,79.23
2018-09-14T06:53:23.599Z,79.24
2018-09-14T06:55:54.006Z,79.36
2018-09-14T06:58:25.503Z,79.28
2018-09-14T07:00:55.943Z,78.73
2018-09-14T07:03:26.331Z,78.10
2018-09-14T07:05:56.945Z,77.73
2018-09-14T07:08:27.459Z,78.79
2018-09-14T07:10:57.904Z,78.08
2018-09-14T07:13:28.293Z,78.53
2018-09-14T07:15:58.716Z,77.52
2018-09-14T07:18:29.080Z,77.61
2018-09-14T07:20:59.466Z,78.06
2018-09-14T07:23:30.426Z,77.55
2018-09-14T07:26:00.985Z,78.43
2018-09-14T07:28:31.568Z,78.47
2018-09-14T07:31:01.928Z,78.02
2018-09-14T07:33:32.184Z,76.49
2018-09-14T07:36:02.771Z,76.53
2018-09-14T07:38:33.247Z,77.32
2018-09-14T07:41:03.586Z,75.99
2018-09-14T07:43:33.991Z,76.29
2018-09-14T07:46:04.417Z,76.02
2018-09-14T07:48:34.727Z,75.28
2018-09-14T07:51:05.288Z,76.08
2018-09-14T07:53:35.877Z,75.56
2018-09-14T07:56:06.379Z,75.04
2018-09-14T07:58:36.882Z,74.00
2018-09-14T08:01:07.201Z,73.61
2018-09-14T08:03:37.615Z,74.11
2018-09-14T08:06:08.199Z,74.12
2018-09-14T08:08:38.791Z,73.90
2018-09-14T08:11:09.135Z,72.26
2018-09-14T08:13:39.634Z,71.97
2018-09-14T08:16:09.964Z,71.56
2018-09-14T08:18:40.364Z,72.58
2018-09-14T08:21:10.910Z,73.01
2018-09-14T08:23:41.549Z,72.72
2018-09-14T08:26:11.923Z,71.02
2018-09-14T08:28:42.292Z,68.06
2018-09-14T08:31:12.651Z,68.46
2018-09-14T08:33:43.109Z,68.80
2018-09-14T08:36:13.547Z,66.39
2018-09-14T08:38:44.083Z,67.13
2018-09-14T08:41:14.902Z,66.22
2018-09-14T08:43:45.248Z,65.06
2018-09-14T08:46:15.584Z,59.91
2018-09-14T08:48:46.003Z,58.42
2018-09-14T08:51:21.423Z,62.03
2018-09-14T08:53:51.847Z,64.18
2018-09-14T08:56:22.235Z,63.18
2018-09-14T08:59:00.892Z,61.29
2018-09-14T09:01:31.445Z,61.04
2018-09-14T09:04:05.616Z,59.11
2018-09-14T09:06:35.957Z,59.50
2018-09-14T09:09:09.488Z,59.47
2018-09-14T09:11:40.044Z,56.35
2018-09-14T09:14:10.255Z,56.12
2018-09-14T09:16:40.877Z,56.03
2018-09-14T09:19:11.216Z,58.20
2018-09-14T09:21:41.597Z,58.01
2018-09-14T09:24:12.181Z,58.29
2018-09-14T09:26:42.668Z,58.28
2018-09-14T09:29:13.052Z,55.54
2018-09-14T09:31:43.496Z,56.38
2018-09-14T09:37:49.214Z,58.27
2018-09-14T09:40:19.772Z,57.05
2018-09-14T09:42:50.238Z,55.47
2018-09-14T09:45:20.600Z,56.08
2018-09-14T09:47:51.064Z,56.19
2018-09-14T09:50:21.468Z,55.45
2018-09-14T09:52:51.904Z,57.38
2018-09-14T09:55:22.128Z,56.45
2018-09-14T09:58:17.023Z,54.34
2018-09-14T10:00:52.541Z,54.87
2018-09-14T10:03:27.973Z,55.88
2018-09-14T10:06:03.447Z,54.79
2018-09-14T10:08:33.893Z,52.83
2018-09-14T10:11:04.947Z,53.39
2018-09-14T10:13:35.342Z,52.63
2018-09-14T10:16:06.061Z,49.82
2018-09-14T10:18:36.400Z,50.85
2018-09-14T10:21:07.269Z,47.55
2018-09-14T10:23:37.753Z,50.18
2018-09-14T10:26:08.381Z,51.57
2018-09-14T10:28:39.024Z,53.83
2018-09-14T10:31:09.675Z,50.96
2018-09-14T10:33:39.992Z,52.15
2018-09-14T10:36:10.880Z,51.40
2018-09-14T10:38:41.419Z,49.28
2018-09-14T10:41:13.377Z,51.70
2018-09-14T10:43:43.596Z,52.00
2018-09-14T10:46:14.040Z,52.73
2018-09-14T10:48:44.373Z,52.27
2018-09-14T10:51:14.937Z,52.80
2018-09-14T10:53:45.523Z,51.01
2018-09-14T10:56:15.886Z,51.92
2018-09-14T10:58:46.428Z,51.24
2018-09-14T11:01:17.325Z,50.56
2018-09-14T11:03:47.705Z,50.05
2018-09-14T11:06:18.132Z,49.78
2018-09-14T11:08:49.201Z,51.16
2018-09-14T11:11:19.700Z,49.62
2018-09-14T11:13:50.022Z,49.16
2018-09-14T11:16:20.576Z,48.82
2018-09-14T11:18:51.218Z,46.07
2018-09-14T11:21:21.484Z,48.49
2018-09-14T11:23:51.948Z,45.80
2018-09-14T11:26:22.249Z,44.95
2018-09-14T11:28:52.639Z,46.24
2018-09-14T11:31:28.939Z,47.91
2018-09-14T11:33:59.717Z,48.25
2018-09-14T11:36:30.288Z,47.95
2018-09-14T11:39:00.773Z,45.73
2018-09-14T11:41:31.280Z,46.46
2018-09-14T11:44:01.544Z,45.88
2018-09-14T11:46:31.993Z,45.53
2018-09-14T11:49:02.334Z,44.61
2018-09-14T11:51:32.991Z,42.98
2018-09-14T11:54:03.700Z,43.87
2018-09-14T11:56:34.977Z,44.38
2018-09-14T11:59:05.453Z,42.77
2018-09-14T12:01:36.161Z,43.95
2018-09-14T12:04:06.741Z,44.34
2018-09-14T12:06:37.400Z,42.20
2018-09-14T12:09:11.402Z,42.55
2018-09-14T12:11:42.385Z,44.30
2018-09-14T12:14:12.898Z,44.53
2018-09-14T12:16:43.387Z,45.13
2018-09-14T12:19:13.896Z,44.08
2018-09-14T12:21:44.233Z,45.77
2018-09-14T12:24:14.668Z,46.28
2018-09-14T12:26:45.089Z,45.49
2018-09-14T12:29:15.379Z,46.64
2018-09-14T12:31:45.877Z,46.82
2018-09-14T12:34:16.356Z,44.79
2018-09-14T12:36:47.661Z,43.92
2018-09-14T12:39:18.149Z,43.19
2018-09-14T12:41:48.711Z,44.42
2018-09-14T12:44:19.004Z,44.88
2018-09-14T12:46:49.350Z,44.85
2018-09-14T12:49:19.761Z,44.13
2018-09-14T12:51:50.223Z,44.74
2018-09-14T12:54:20.531Z,42.46
2018-09-14T12:56:50.980Z,42.60
2018-09-14T12:59:21.256Z,42.73
2018-09-14T13:01:51.916Z,42.54
2018-09-14T13:04:22.876Z,42.90
2018-09-14T13:06:53.322Z,43.88
2018-09-14T13:09:23.746Z,43.30
2018-09-14T13:11:53.970Z,43.12
2018-09-14T13:14:24.766Z,42.78
2018-09-14T13:19:24.310Z,45.23
2018-09-14T13:21:54.880Z,45.48
2018-09-14T13:24:25.576Z,43.69
2018-09-14T13:26:56.008Z,44.16
2018-09-14T13:29:26.405Z,44.45
2018-09-14T13:31:56.832Z,44.89
2018-09-14T13:34:28.454Z,42.96
2018-09-14T13:36:58.956Z,42.97
2018-09-14T13:39:29.312Z,44.01
2018-09-14T13:41:59.636Z,42.78
2018-09-14T13:44:30.071Z,42.79
2018-09-14T13:47:01.340Z,45.15
2018-09-14T13:49:31.822Z,43.75
2018-09-14T13:52:02.139Z,45.19
2018-09-14T13:54:32.479Z,43.49
2018-09-14T13:57:03.462Z,41.67
2018-09-14T13:59:33.952Z,41.60
2018-09-14T14:02:04.376Z,43.50
2018-09-14T14:04:35.162Z,42.58
2018-09-14T14:07:05.611Z,40.58
2018-09-14T14:09:36.222Z,40.80
2018-09-14T14:12:06.520Z,41.03
2018-09-14T14:14:36.861Z,42.47
2018-09-14T14:17:07.558Z,40.69
2018-09-14T14:19:38.038Z,41.44
2018-09-14T14:22:08.646Z,41.12
2018-09-14T14:24:39.096Z,41.61
2018-09-14T14:27:09.558Z,41.08
2018-09-14T14:29:39.924Z,40.31
2018-09-14T14:32:10.391Z,40.20
2018-09-14T14:34:40.746Z,40.61
2018-09-14T14:37:11.049Z,40.50
2018-09-14T14:39:41.496Z,40.79
2018-09-14T14:42:11.821Z,41.33
2018-09-14T14:44:42.291Z,41.08
2018-09-14T14:47:12.569Z,41.26
2018-09-14T14:49:42.913Z,42.00
2018-09-14T14:52:13.231Z,41.34
2018-09-14T14:54:43.688Z,41.17
2018-09-14T14:57:14.005Z,42.17
2018-09-14T15:02:44.730Z,41.26
2018-09-14T15:05:15.108Z,41.74
2018-09-14T15:07:45.463Z,41.64
2018-09-14T15:10:16.116Z,41.20
2018-09-14T15:12:46.476Z,41.39
2018-09-14T15:15:16.721Z,42.11
2018-09-14T15:17:47.035Z,42.22
2018-09-14T15:20:17.556Z,43.37
2018-09-14T15:22:47.872Z,44.21
2018-09-14T15:25:18.337Z,44.28
2018-09-14T15:27:48.840Z,44.78
2018-09-14T15:30:19.273Z,44.62
2018-09-14T15:32:49.769Z,43.15
2018-09-14T15:35:20.312Z,43.64
2018-09-14T15:37:51.143Z,42.75
2018-09-14T15:40:22.117Z,42.60
2018-09-14T15:42:52.668Z,41.85
2018-09-14T15:45:23.049Z,42.85
2018-09-14T15:47:59.743Z,43.21
2018-09-14T15:50:30.218Z,42.85
2018-09-14T15:53:00.643Z,42.65
2018-09-14T15:55:30.939Z,42.08
2018-09-14T15:58:01.353Z,43.02
2018-09-14T16:00:31.929Z,43.71
2018-09-14T16:03:02.332Z,43.62
2018-09-14T16:05:32.808Z,44.61
2018-09-14T16:08:03.317Z,44.18
2018-09-14T16:10:33.764Z,43.65
2018-09-14T16:13:04.258Z,44.23
2018-09-14T16:15:34.711Z,44.43
2018-09-14T16:18:05.154Z,43.89
2018-09-14T16:20:35.613Z,44.39
2018-09-14T16:23:05.983Z,45.85
2018-09-14T16:25:36.408Z,45.22
2018-09-14T16:28:06.950Z,44.80
2018-09-14T16:30:37.200Z,45.90
2018-09-14T16:33:07.760Z,46.07
2018-09-14T16:35:38.121Z,46.54
2018-09-14T16:38:08.665Z,46.58
2018-09-14T16:40:39.291Z,47.75
2018-09-14T16:43:09.850Z,47.08
2018-09-14T16:45:40.122Z,47.54
2018-09-14T16:48:10.592Z,48.04
2018-09-14T16:50:40.957Z,48.96
2018-09-14T16:53:11.240Z,48.83
2018-09-14T16:55:41.449Z,49.95
2018-09-14T16:58:11.876Z,50.00
2018-09-14T17:00:42.272Z,48.88
2018-09-14T17:03:12.647Z,49.86
2018-09-14T17:05:43.144Z,50.36
2018-09-14T17:08:13.538Z,50.16
2018-09-14T17:10:43.866Z,50.80
2018-09-14T17:13:14.274Z,50.98
2018-09-14T17:15:44.950Z,51.27
2018-09-14T17:18:15.377Z,51.83
2018-09-14T17:20:46.037Z,50.97
2018-09-14T17:23:16.548Z,51.45
2018-09-14T17:25:47.075Z,51.92
2018-09-14T17:28:17.309Z,53.92
2018-09-14T17:30:47.704Z,53.94
2018-09-14T17:33:18.201Z,54.23
2018-09-14T17:35:48.800Z,54.08
2018-09-14T17:38:19.427Z,54.85
2018-09-14T17:40:50.467Z,54.68
2018-09-14T17:43:21.074Z,55.27
2018-09-14T17:45:52.043Z,55.79
2018-09-14T17:48:22.585Z,56.47
2018-09-14T17:50:53.331Z,56.04
2018-09-14T17:53:23.739Z,56.88
2018-09-14T17:55:54.139Z,56.33
2018-09-14T17:58:24.579Z,57.54
2018-09-14T18:00:55.044Z,57.56
2018-09-14T18:03:25.411Z,58.37
2018-09-14T18:05:55.841Z,57.43
2018-09-14T18:11:05.066Z,58.42
2018-09-14T18:13:35.616Z,58.64
2018-09-14T18:16:05.950Z,57.97
2018-09-14T18:18:36.375Z,57.80
2018-09-14T18:24:07.775Z,58.78
2018-09-14T18:26:38.243Z,59.19
2018-09-14T18:29:08.450Z,59.97
2018-09-14T18:31:38.927Z,60.56
2018-09-14T18:34:09.427Z,60.29
2018-09-14T18:36:39.779Z,60.76
2018-09-14T18:39:12.651Z,61.98
2018-09-14T18:41:43.800Z,62.99
2018-09-14T18:44:14.088Z,62.23
2018-09-14T18:46:44.663Z,62.26
2018-09-14T18:49:15.048Z,63.35
2018-09-14T18:51:45.600Z,63.45
2018-09-14T18:54:16.193Z,63.34
2018-09-14T18:56:46.573Z,63.04
2018-09-14T18:59:16.932Z,63.21
2018-09-14T19:01:47.720Z,64.61
2018-09-14T19:04:18.132Z,64.39
2018-09-14T19:07:11.313Z,64.56
2018-09-14T19:09:41.685Z,64.84
2018-09-14T19:12:11.950Z,64.37
2018-09-14T19:14:42.460Z,65.18
2018-09-14T19:17:12.970Z,65.04
2018-09-14T19:19:43.617Z,65.64
2018-09-14T19:22:14.109Z,66.13
2018-09-14T19:24:44.521Z,65.80
2018-09-14T19:27:14.971Z,65.95
2018-09-14T19:29:45.423Z,66.43
2018-09-14T19:32:15.914Z,66.54
2018-09-14T19:34:46.352Z,66.62
2018-09-14T19:37:16.691Z,66.69
2018-09-14T19:39:47.154Z,67.32
2018-09-14T19:42:17.624Z,66.95
2018-09-14T19:44:48.013Z,67.33
2018-09-14T19:47:18.576Z,67.54
2018-09-14T19:50:11.656Z,67.91
2018-09-14T19:52:42.116Z,67.67
2018-09-14T19:55:12.592Z,67.79
2018-09-14T19:57:43.188Z,68.26
2018-09-14T20:00:13.596Z,68.54
2018-09-14T20:02:43.977Z,69.12
2018-09-14T20:05:14.981Z,68.39
2018-09-14T20:07:45.700Z,69.19
2018-09-14T20:10:17.065Z,69.15
2018-09-14T20:12:47.528Z,69.24
2018-09-14T20:15:18.028Z,70.04
2018-09-14T20:17:48.528Z,69.89
2018-09-14T20:20:18.863Z,70.08
2018-09-14T20:22:49.945Z,70.25
2018-09-14T20:25:20.235Z,70.29
2018-09-14T20:27:50.611Z,70.91
2018-09-14T20:33:21.480Z,70.49
2018-09-14T20:35:55.233Z,70.03
2018-09-14T20:38:25.659Z,70.74
2018-09-14T20:40:56.181Z,70.55
2018-09-14T20:43:26.735Z,70.36
2018-09-14T20:45:57.587Z,71.21
2018-09-14T20:48:28.140Z,70.81
2018-09-14T20:50:58.732Z,70.63
2018-09-14T20:53:29.142Z,70.37
2018-09-14T20:55:59.562Z,71.35
2018-09-14T20:58:30.213Z,71.86
2018-09-14T21:01:00.708Z,71.81
2018-09-14T21:03:31.117Z,71.26
2018-09-14T21:06:01.564Z,72.16
2018-09-14T21:08:32.023Z,71.46
2018-09-14T21:11:02.383Z,71.64
2018-09-14T21:13:32.848Z,71.57
2018-09-14T21:16:03.155Z,71.27
2018-09-14T21:18:33.607Z,71.38
2018-09-14T21:21:04.079Z,71.80
2018-09-14T21:23:35.154Z,71.74
2018-09-14T21:26:05.927Z,72.35
2018-09-14T21:28:36.427Z,71.86
2018-09-14T21:31:06.886Z,72.65
2018-09-14T21:33:37.782Z,72.84
2018-09-14T21:36:08.176Z,72.50
2018-09-14T21:38:38.771Z,72.14
2018-09-14T21:41:09.118Z,72.14
2018-09-14T21:43:39.494Z,72.39
2018-09-14T21:46:09.856Z,72.26
2018-09-14T21:48:40.316Z,72.41
2018-09-14T21:51:10.349Z,72.61
2018-09-14T21:53:40.458Z,72.12
2018-09-14T21:56:10.981Z,72.39
2018-09-14T21:58:41.416Z,72.27
2018-09-14T22:01:15.685Z,71.56
2018-09-14T22:03:46.249Z,71.67
2018-09-14T22:06:17.121Z,70.70
2018-09-14T22:08:47.516Z,70.88
2018-09-14T22:11:18.084Z,70.26
2018-09-14T22:13:48.841Z,70.68
2018-09-14T22:16:19.311Z,70.81
2018-09-14T22:18:49.726Z,70.69
2018-09-14T22:21:20.225Z,70.81
2018-09-14T22:23:50.790Z,70.37
2018-09-14T22:26:21.277Z,69.55
2018-09-14T22:28:51.887Z,69.33
2018-09-14T22:31:22.236Z,69.61
2018-09-14T22:33:52.610Z,70.09
2018-09-14T22:36:23.067Z,69.50
2018-09-14T22:38:53.744Z,70.18
2018-09-14T22:41:24.043Z,69.16
2018-09-14T22:43:54.400Z,69.67
2018-09-14T22:46:24.896Z,69.96
2018-09-14T22:48:55.364Z,69.04
2018-09-14T22:51:25.990Z,68.87
2018-09-14T22:53:56.501Z,68.85
2018-09-14T22:56:26.828Z,68.48
2018-09-14T22:58:57.260Z,68.96
2018-09-14T23:01:27.812Z,68.23
2018-09-14T23:03:58.315Z,67.94
2018-09-14T23:06:28.786Z,68.05
2018-09-14T23:12:00.466Z,68.28
2018-09-14T23:14:30.915Z,67.62
2018-09-14T23:17:01.420Z,67.84
2018-09-14T23:19:32.020Z,68.32
2018-09-14T23:22:02.617Z,68.42
2018-09-14T23:24:33.191Z,67.97
2018-09-14T23:27:03.722Z,68.54
2018-09-14T23:29:34.040Z,68.87
2018-09-14T23:32:04.863Z,68.14
2018-09-14T23:34:35.313Z,68.13
2018-09-14T23:37:05.855Z,68.54
2018-09-14T23:39:36.279Z,67.92
2018-09-14T23:42:06.635Z,67.68
2018-09-14T23:44:36.819Z,68.31
2018-09-14T23:47:07.607Z,67.60
2018-09-14T23:49:37.972Z,67.46
2018-09-14T23:52:08.465Z,67.92
2018-09-14T23:54:38.915Z,68.28
2018-09-14T23:57:09.159Z,68.62
2018-09-14T23:59:39.656Z,68.92
